Time;durP1;ratioP1;P1;durP2;ratioP2;P2;SDS_P1;SDS_P2;PMS_P1;PMS_P2;Temp;Humidity;BMP_temperature;BMP_pressure;BME280_temperature;BME280_humidity;BME280_pressure;Samples;Min_cycle;Max_cycle;Signal;HPM_P1;HPM_P2
2020/12/22 00:00:17;;;;;;;4.20;2.40;;;23.60;82.50;;;;;;5111725;28;20036;-66
2020/12/22 00:02:46;;;;;;;4.93;2.38;;;23.60;82.60;;;;;;5111920;28;20092;-67
2020/12/22 00:05:14;;;;;;;4.60;2.30;;;23.70;82.80;;;;;;5112225;28;20027;-66
2020/12/22 00:07:42;;;;;;;4.32;2.10;;;23.70;82.10;;;;;;5112197;28;20524;-63
2020/12/22 00:10:11;;;;;;;6.05;2.33;;;23.70;81.70;;;;;;5111905;28;20064;-63
2020/12/22 00:12:39;;;;;;;3.97;2.05;;;23.80;81.30;;;;;;5111806;28;20039;-66
2020/12/22 00:15:10;;;;;;;5.78;2.35;;;23.80;81.60;;;;;;5111797;28;20075;-65
2020/12/22 00:17:42;;;;;;;6.75;2.80;;;23.80;82.00;;;;;;5112118;28;20482;-63
2020/12/22 00:20:09;;;;;;;5.65;2.40;;;23.90;82.00;;;;;;5114741;28;20040;-61
2020/12/22 00:22:37;;;;;;;4.32;2.53;;;23.90;82.00;;;;;;5114661;28;20028;-63
2020/12/22 00:25:05;;;;;;;4.13;2.40;;;23.90;82.40;;;;;;5097417;28;20020;-60
2020/12/22 00:27:33;;;;;;;4.72;2.38;;;24.00;81.50;;;;;;5115259;28;20165;-64
2020/12/22 00:30:02;;;;;;;4.78;2.15;;;24.00;81.30;;;;;;5115299;28;20417;-63
2020/12/22 00:32:29;;;;;;;6.35;2.05;;;24.10;80.20;;;;;;5114830;28;20024;-65
2020/12/22 00:34:56;;;;;;;4.28;2.10;;;24.10;80.90;;;;;;5115292;28;20027;-64
2020/12/22 00:37:24;;;;;;;4.90;2.35;;;24.20;79.70;;;;;;5115012;28;20030;-65
2020/12/22 00:39:51;;;;;;;3.20;1.85;;;24.30;80.50;;;;;;5096772;28;20020;-64
2020/12/22 00:42:18;;;;;;;4.15;2.13;;;24.30;80.00;;;;;;5115011;28;20156;-62
2020/12/22 00:44:46;;;;;;;4.18;1.70;;;24.40;79.90;;;;;;5115133;28;20020;-64
2020/12/22 00:47:13;;;;;;;4.72;2.45;;;24.40;78.40;;;;;;5115429;28;20020;-63
2020/12/22 00:49:40;;;;;;;5.28;2.65;;;24.40;80.00;;;;;;5114589;28;20042;-63
2020/12/22 00:52:08;;;;;;;3.63;2.03;;;24.50;77.80;;;;;;5115124;28;20389;-65
2020/12/22 00:54:35;;;;;;;4.15;2.10;;;24.50;77.80;;;;;;5114855;28;20032;-65
2020/12/22 00:57:03;;;;;;;3.47;1.80;;;24.50;78.10;;;;;;5114740;28;20592;-66
2020/12/22 00:59:30;;;;;;;3.53;2.13;;;24.60;77.20;;;;;;5114223;28;20446;-62
2020/12/22 01:02:07;;;;;;;5.38;2.30;;;24.70;77.30;;;;;;5114674;28;20024;-63
2020/12/22 01:04:34;;;;;;;3.83;2.03;;;24.60;78.70;;;;;;5114504;28;20073;-65
2020/12/22 01:07:02;;;;;;;4.80;1.65;;;24.70;78.20;;;;;;5114883;28;20390;-61
2020/12/22 01:09:30;;;;;;;2.60;2.03;;;24.70;77.80;;;;;;5113953;28;20028;-62
2020/12/22 01:11:57;;;;;;;3.22;1.90;;;24.70;78.80;;;;;;5114250;28;20415;-62
2020/12/22 01:14:24;;;;;;;4.55;1.90;;;24.70;77.70;;;;;;5114313;28;20370;-62
2020/12/22 01:16:54;;;;;;;4.65;2.58;;;24.80;77.40;;;;;;5114303;28;20022;-64
2020/12/22 01:19:22;;;;;;;4.20;2.42;;;24.80;78.40;;;;;;5114363;28;20044;-63
2020/12/22 01:21:56;;;;;;;3.47;1.95;;;24.90;77.60;;;;;;5096459;28;20046;-62
2020/12/22 01:24:24;;;;;;;3.63;2.33;;;24.90;78.10;;;;;;5114570;28;20027;-63
2020/12/22 01:26:54;;;;;;;4.50;1.58;;;24.90;78.30;;;;;;5114161;28;20020;-63
2020/12/22 01:29:21;;;;;;;2.67;1.95;;;25.00;76.90;;;;;;5094211;28;20023;-63
2020/12/22 01:31:49;;;;;;;3.33;1.88;;;25.00;76.60;;;;;;5113666;28;20031;-65
2020/12/22 01:34:17;;;;;;;6.22;2.00;;;25.00;77.00;;;;;;5114108;28;20023;-63
2020/12/22 01:36:45;;;;;;;3.30;1.40;;;25.10;76.60;;;;;;5113818;28;20378;-64
2020/12/22 01:39:12;;;;;;;3.40;1.90;;;25.00;75.80;;;;;;5113398;28;20020;-64
2020/12/22 01:41:39;;;;;;;3.22;1.85;;;25.00;78.10;;;;;;5113624;28;20079;-64
2020/12/22 01:44:15;;;;;;;3.38;1.50;;;25.00;78.70;;;;;;5113475;28;20031;-63
2020/12/22 01:46:48;;;;;;;5.00;1.85;;;25.10;75.60;;;;;;5113205;28;20015;-61
2020/12/22 01:49:25;;;;;;;4.13;1.35;;;25.10;75.80;;;;;;5112336;28;20068;-62
2020/12/22 01:51:55;;;;;;;2.70;1.77;;;25.10;76.10;;;;;;5106591;27;20035;-56
2020/12/22 01:54:23;;;;;;;3.33;1.52;;;25.10;76.80;;;;;;5109942;28;20024;-62
2020/12/22 01:56:51;;;;;;;2.75;1.60;;;25.10;77.50;;;;;;5113521;27;20032;-64
2020/12/22 01:59:19;;;;;;;3.50;1.80;;;25.20;76.80;;;;;;5111959;28;20027;-64
2020/12/22 02:01:49;;;;;;;2.78;1.60;;;25.20;77.10;;;;;;5110163;28;20019;-64
2020/12/22 02:04:17;;;;;;;2.10;1.70;;;25.20;76.70;;;;;;5106765;28;20099;-62
2020/12/22 02:06:45;;;;;;;3.70;1.70;;;25.30;77.50;;;;;;5112276;28;20034;-67
2020/12/22 02:09:12;;;;;;;3.47;1.48;;;25.20;76.90;;;;;;5108001;28;20055;-64
2020/12/22 02:11:41;;;;;;;3.03;1.60;;;25.30;75.60;;;;;;5110390;28;20107;-66
2020/12/22 02:14:11;;;;;;;3.70;1.20;;;25.40;73.70;;;;;;5107469;28;20458;-66
2020/12/22 02:16:39;;;;;;;2.92;1.35;;;25.40;75.80;;;;;;5111584;28;20027;-61
2020/12/22 02:19:16;;;;;;;2.80;1.38;;;25.40;76.40;;;;;;5112222;28;20091;-56
2020/12/22 02:21:44;;;;;;;3.75;1.33;;;25.40;75.30;;;;;;5110600;28;20509;-53
2020/12/22 02:24:11;;;;;;;3.17;1.40;;;25.50;75.40;;;;;;5107343;28;20031;-56
2020/12/22 02:26:38;;;;;;;2.78;1.38;;;25.40;76.30;;;;;;5111971;28;20571;-58
2020/12/22 02:29:06;;;;;;;1.85;1.30;;;25.40;75.90;;;;;;5112263;28;20024;-62
2020/12/22 02:31:34;;;;;;;3.20;1.35;;;25.40;76.70;;;;;;5110941;28;20020;-60
2020/12/22 02:34:01;;;;;;;1.60;1.23;;;25.40;74.00;;;;;;5107921;28;20051;-52
2020/12/22 02:36:28;;;;;;;3.08;1.30;;;25.50;75.30;;;;;;5112017;28;20507;-54
2020/12/22 02:38:56;;;;;;;2.65;1.48;;;25.60;75.50;;;;;;5111716;28;20039;-52
2020/12/22 02:41:23;;;;;;;2.28;1.30;;;25.60;73.50;;;;;;5109842;28;20028;-51
2020/12/22 02:43:51;;;;;;;2.92;1.45;;;25.60;76.10;;;;;;5107016;28;20035;-53
2020/12/22 02:46:18;;;;;;;1.95;1.33;;;25.60;76.50;;;;;;5113822;28;20081;-60
2020/12/22 02:48:46;;;;;;;2.15;1.02;;;25.60;74.40;;;;;;5111493;28;20028;-57
2020/12/22 02:51:13;;;;;;;1.70;1.05;;;25.60;76.20;;;;;;5110995;28;20031;-55
2020/12/22 02:53:40;;;;;;;3.08;1.20;;;25.60;76.10;;;;;;5087163;28;20398;-58
2020/12/22 02:56:09;;;;;;;4.35;1.10;;;25.70;74.60;;;;;;5092902;28;20031;-58
2020/12/22 02:58:37;;;;;;;3.67;1.50;;;25.70;76.40;;;;;;5110744;28;20107;-61
2020/12/22 03:01:07;;;;;;;2.47;1.33;;;25.80;74.40;;;;;;5109962;28;20020;-57
2020/12/22 03:03:34;;;;;;;3.55;1.08;;;25.80;73.70;;;;;;5102320;28;20031;-60
2020/12/22 03:06:02;;;;;;;2.40;1.30;;;25.90;75.30;;;;;;5106293;28;20024;-56
2020/12/22 03:08:29;;;;;;;2.65;1.40;;;25.90;75.90;;;;;;5110756;28;20035;-62
2020/12/22 03:10:57;;;;;;;1.65;1.23;;;25.90;76.00;;;;;;5109883;28;20023;-62
2020/12/22 03:13:24;;;;;;;1.45;0.98;;;26.00;73.30;;;;;;5105827;28;20028;-53
2020/12/22 03:15:51;;;;;;;2.35;1.35;;;26.10;74.10;;;;;;5110782;28;20024;-51
2020/12/22 03:18:19;;;;;;;1.20;1.10;;;26.10;74.20;;;;;;5110685;28;20047;-61
2020/12/22 03:20:47;;;;;;;4.85;1.20;;;26.00;74.90;;;;;;5110049;28;20035;-60
2020/12/22 03:23:14;;;;;;;1.13;1.00;;;25.90;70.20;;;;;;5088463;28;20023;-60
2020/12/22 03:25:43;;;;;;;1.42;0.88;;;26.00;70.90;;;;;;5110354;28;20035;-63
2020/12/22 03:28:10;;;;;;;6.07;1.00;;;26.00;73.70;;;;;;5106940;28;20418;-57
2020/12/22 03:30:37;;;;;;;3.17;1.05;;;25.90;71.20;;;;;;5109074;28;20031;-56
2020/12/22 03:33:05;;;;;;;1.73;1.02;;;26.00;72.20;;;;;;5107496;28;20035;-65
2020/12/22 03:35:32;;;;;;;2.90;1.00;;;25.90;74.40;;;;;;5108826;28;20469;-61
2020/12/22 03:38:00;;;;;;;2.03;1.17;;;25.90;70.90;;;;;;5111186;28;20040;-55
2020/12/22 03:40:27;;;;;;;2.20;1.10;;;26.00;74.60;;;;;;5110362;28;20042;-58
2020/12/22 03:42:55;;;;;;;1.40;1.10;;;26.00;73.50;;;;;;5110566;28;20046;-60
2020/12/22 03:45:22;;;;;;;6.80;1.20;;;26.00;73.50;;;;;;5109021;28;20020;-66
2020/12/22 03:47:50;;;;;;;1.52;0.88;;;26.00;71.50;;;;;;5110994;28;20059;-67
2020/12/22 03:50:17;;;;;;;1.98;1.20;;;26.00;71.70;;;;;;5111004;28;20038;-61
2020/12/22 03:52:46;;;;;;;1.75;0.90;;;26.10;71.20;;;;;;5110327;28;20020;-63
2020/12/22 03:55:13;;;;;;;1.58;0.80;;;26.10;72.30;;;;;;5109199;28;20024;-63
2020/12/22 03:57:41;;;;;;;1.05;0.77;;;26.10;71.00;;;;;;5114259;28;20020;-68
2020/12/22 04:00:13;;;;;;;1.55;0.95;;;26.10;69.00;;;;;;5114948;28;20156;-60
2020/12/22 04:02:39;;;;;;;;;;;26.10;75.00;;;;;;5114362;28;20507;-62
2020/12/22 04:05:07;;;;;;;3.20;0.90;;;26.10;71.10;;;;;;5109231;28;19972;-62
2020/12/22 04:07:34;;;;;;;0.82;0.63;;;26.00;74.30;;;;;;5095711;28;20377;-63
2020/12/22 04:10:02;;;;;;;2.38;0.85;;;26.10;73.10;;;;;;5114239;28;20376;-63
2020/12/22 04:12:29;;;;;;;1.40;0.95;;;26.10;71.20;;;;;;5113428;28;20395;-59
2020/12/22 04:14:57;;;;;;;0.95;0.80;;;26.10;70.50;;;;;;5109228;28;20015;-62
2020/12/22 04:17:24;;;;;;;1.75;0.90;;;26.10;73.50;;;;;;5114146;28;20023;-60
2020/12/22 04:19:52;;;;;;;3.10;1.23;;;26.10;69.90;;;;;;5095508;28;20047;-60
2020/12/22 04:22:19;;;;;;;0.90;0.70;;;26.10;72.20;;;;;;5109455;28;20132;-63
2020/12/22 04:24:47;;;;;;;2.35;0.90;;;26.10;71.10;;;;;;5108208;28;20035;-61
2020/12/22 04:27:14;;;;;;;1.20;0.77;;;26.10;72.70;;;;;;5113363;28;20031;-61
2020/12/22 04:29:42;;;;;;;2.08;0.80;;;26.20;73.00;;;;;;5113543;28;20442;-62
2020/12/22 04:32:09;;;;;;;3.13;0.65;;;26.10;74.60;;;;;;5112976;28;20023;-64
2020/12/22 04:34:36;;;;;;;1.10;0.80;;;26.10;71.00;;;;;;5108701;28;20480;-61
2020/12/22 04:37:04;;;;;;;2.03;0.80;;;26.10;74.30;;;;;;5113182;28;20024;-63
2020/12/22 04:39:31;;;;;;;3.40;1.10;;;26.10;69.30;;;;;;5113416;28;20481;-60
2020/12/22 04:42:00;;;;;;;1.30;0.88;;;26.10;72.50;;;;;;5112526;28;20028;-61
2020/12/22 04:44:27;;;;;;;2.50;0.63;;;26.10;71.80;;;;;;5109569;27;20086;-53
2020/12/22 04:46:55;;;;;;;1.50;0.80;;;26.20;70.80;;;;;;5094823;28;20055;-57
2020/12/22 04:49:28;;;;;;;2.13;0.80;;;26.30;69.10;;;;;;5113247;28;20039;-54
2020/12/22 04:51:57;;;;;;;1.95;0.40;;;26.30;70.60;;;;;;5109091;28;20081;-54
2020/12/22 04:54:27;;;;;;;2.72;0.60;;;26.30;64.20;;;;;;5104426;28;20012;-56
2020/12/22 04:56:55;;;;;;;1.70;0.63;;;26.30;66.60;;;;;;5108836;28;20382;-53
2020/12/22 04:59:22;;;;;;;0.50;0.50;;;26.30;65.00;;;;;;5108815;28;20611;-57
2020/12/22 05:01:50;;;;;;;4.65;0.90;;;26.40;63.50;;;;;;5113310;28;20442;-54
2020/12/22 05:04:18;;;;;;;2.05;1.02;;;26.50;60.30;;;;;;5113621;28;20031;-55
2020/12/22 05:06:46;;;;;;;3.17;0.50;;;26.50;62.00;;;;;;5114162;28;20135;-53
2020/12/22 05:09:13;;;;;;;0.45;0.43;;;26.60;61.20;;;;;;5114065;28;20045;-56
2020/12/22 05:11:41;;;;;;;9.38;0.98;;;26.50;64.30;;;;;;5113827;28;20064;-58
2020/12/22 05:14:08;;;;;;;1.75;0.77;;;26.50;63.60;;;;;;5113721;28;20024;-55
2020/12/22 05:16:38;;;;;;;5.10;0.70;;;26.50;63.10;;;;;;5113972;28;20035;-55
2020/12/22 05:19:06;;;;;;;1.73;0.63;;;26.40;61.10;;;;;;5113840;28;20154;-54
2020/12/22 05:21:37;;;;;;;2.75;0.68;;;26.30;63.90;;;;;;5113483;28;20482;-57
2020/12/22 05:24:05;;;;;;;0.85;0.40;;;26.30;60.30;;;;;;5113558;28;20035;-55
2020/12/22 05:26:34;;;;;;;1.00;0.45;;;26.20;63.60;;;;;;5113795;28;20028;-59
2020/12/22 05:29:18;;;;;;;4.07;0.60;;;26.20;63.20;;;;;;5112517;28;20450;-53
2020/12/22 05:31:54;;;;;;;2.50;1.02;;;26.20;60.90;;;;;;5113655;28;20031;-55
2020/12/22 05:34:26;;;;;;;5.13;0.93;;;26.40;56.80;;;;;;5113325;28;20096;-57
2020/12/22 05:37:00;;;;;;;2.55;0.30;;;26.40;57.50;;;;;;5112978;28;20038;-54
2020/12/22 05:39:27;;;;;;;3.65;0.50;;;26.40;57.80;;;;;;5094588;28;20484;-55
2020/12/22 05:41:55;;;;;;;3.30;1.15;;;26.40;55.40;;;;;;5113414;28;20023;-56
2020/12/22 05:44:26;;;;;;;10.05;0.55;;;26.50;58.90;;;;;;5113137;28;20036;-53
2020/12/22 05:46:54;;;;;;;1.17;0.32;;;26.50;56.10;;;;;;5112972;28;20030;-55
2020/12/22 05:49:21;;;;;;;2.95;0.80;;;26.50;59.10;;;;;;5112909;28;20028;-55
2020/12/22 05:51:50;;;;;;;3.00;0.80;;;26.40;51.50;;;;;;5113224;28;20481;-57
2020/12/22 05:54:17;;;;;;;2.47;0.80;;;26.60;54.00;;;;;;5113017;28;20064;-53
2020/12/22 05:56:45;;;;;;;3.78;0.80;;;26.70;56.80;;;;;;5112514;28;20095;-55
2020/12/22 05:59:22;;;;;;;2.83;0.70;;;26.70;55.30;;;;;;5113018;28;20024;-56
2020/12/22 06:01:50;;;;;;;3.42;0.47;;;26.70;54.30;;;;;;5113155;28;20475;-53
2020/12/22 06:04:18;;;;;;;1.23;0.60;;;26.60;55.60;;;;;;5094978;28;20055;-56
2020/12/22 06:06:46;;;;;;;2.63;1.00;;;26.60;54.50;;;;;;5112673;28;20015;-67
2020/12/22 06:09:14;;;;;;;1.08;0.30;;;26.40;57.30;;;;;;5113226;28;20020;-66
2020/12/22 06:11:41;;;;;;;2.13;0.73;;;26.20;59.00;;;;;;5112672;28;20019;-64
2020/12/22 06:14:09;;;;;;;3.08;0.50;;;26.10;56.40;;;;;;5103404;27;20020;-63
2020/12/22 06:16:36;;;;;;;2.08;0.80;;;26.10;59.60;;;;;;5109601;27;20031;-59
2020/12/22 06:19:08;;;;;;;1.73;0.38;;;26.10;60.70;;;;;;5112867;27;20074;-64
2020/12/22 06:21:37;;;;;;;1.08;0.40;;;26.10;61.20;;;;;;5107853;28;20023;-61
2020/12/22 06:24:04;;;;;;;3.65;0.60;;;26.00;60.40;;;;;;5092741;28;20038;-57
2020/12/22 06:26:32;;;;;;;2.17;0.60;;;26.10;59.20;;;;;;5103120;28;20053;-64
2020/12/22 06:28:59;;;;;;;0.55;0.45;;;26.10;60.80;;;;;;5110922;28;20039;-58
2020/12/22 06:31:33;;;;;;;1.17;0.60;;;26.10;61.10;;;;;;5113430;28;20683;-57
2020/12/22 06:34:01;;;;;;;2.97;0.82;;;26.10;62.10;;;;;;5111440;28;20024;-60
2020/12/22 06:36:28;;;;;;;1.80;0.47;;;26.10;58.70;;;;;;5107173;28;20024;-63
2020/12/22 06:39:02;;;;;;;1.92;0.68;;;26.00;62.60;;;;;;5111274;28;20388;-52
2020/12/22 06:41:37;;;;;;;2.50;0.75;;;26.10;60.50;;;;;;5111337;28;20060;-59
2020/12/22 06:44:28;;;;;;;2.13;0.40;;;26.10;59.00;;;;;;5106725;28;20038;-56
2020/12/22 06:46:57;;;;;;;1.80;0.60;;;26.10;62.80;;;;;;5090233;28;20442;-62
2020/12/22 06:49:53;;;;;;;0.85;0.40;;;26.10;60.00;;;;;;5110411;28;20047;-61
2020/12/22 06:52:36;;;;;;;4.72;0.65;;;26.00;61.10;;;;;;5109259;28;20153;-63
2020/12/22 06:55:11;;;;;;;0.98;0.65;;;25.90;64.30;;;;;;5110451;28;20051;-65
2020/12/22 06:57:49;;;;;;;8.40;7.68;;;25.90;59.90;;;;;;5109085;28;20110;-60
2020/12/22 07:00:28;;;;;;;1.75;1.05;;;25.90;62.20;;;;;;5107770;28;20023;-63
2020/12/22 07:03:14;;;;;;;2.92;0.43;;;25.90;63.00;;;;;;5111161;28;20042;-63
2020/12/22 07:05:44;;;;;;;0.43;0.40;;;25.80;64.50;;;;;;5084155;28;20031;-61
2020/12/22 07:08:16;;;;;;;2.20;0.60;;;25.80;60.50;;;;;;5110041;28;20023;-62
2020/12/22 07:10:44;;;;;;;;;;;25.80;62.60;;;;;;5107247;28;20023;-54
2020/12/22 07:13:13;;;;;;;1.25;0.63;;;25.80;63.00;;;;;;5106450;28;20294;-54
2020/12/22 07:15:54;;;;;;;1.27;0.85;;;25.80;60.40;;;;;;5102251;28;20042;-62
2020/12/22 07:18:32;;;;;;;1.58;0.52;;;25.80;66.00;;;;;;5107829;28;20105;-56
2020/12/22 07:21:01;;;;;;;0.95;0.40;;;25.80;63.00;;;;;;5110165;28;20092;-53
2020/12/22 07:23:28;;;;;;;0.50;0.40;;;25.70;61.80;;;;;;5091801;28;20318;-61
2020/12/22 07:25:59;;;;;;;1.65;0.75;;;25.70;65.10;;;;;;5105845;28;20024;-60
2020/12/22 07:28:26;;;;;;;4.00;0.50;;;25.80;59.10;;;;;;5114559;28;20047;-57
2020/12/22 07:30:54;;;;;;;1.38;0.57;;;25.70;62.90;;;;;;5114588;28;20462;-61
2020/12/22 07:33:21;;;;;;;0.95;0.45;;;25.70;62.70;;;;;;5113533;28;20231;-64
2020/12/22 07:35:51;;;;;;;0.95;0.60;;;25.70;63.30;;;;;;5110544;28;20016;-57
2020/12/22 07:38:19;;;;;;;3.97;0.50;;;25.70;64.70;;;;;;5111198;28;20039;-57
2020/12/22 07:40:46;;;;;;;2.22;0.50;;;25.70;64.80;;;;;;5111132;28;20454;-59
2020/12/22 07:43:14;;;;;;;0.60;0.38;;;25.60;61.60;;;;;;5114056;28;20024;-66
2020/12/22 07:45:52;;;;;;;1.58;0.70;;;25.70;60.90;;;;;;5110176;28;20123;-58
2020/12/22 07:48:20;;;;;;;0.93;0.40;;;25.60;64.20;;;;;;5110587;28;20085;-61
2020/12/22 07:50:54;;;;;;;1.08;0.60;;;25.60;61.00;;;;;;5114323;28;20096;-59
2020/12/22 07:53:22;;;;;;;1.52;0.70;;;25.60;64.20;;;;;;5112992;28;20023;-52
2020/12/22 07:55:49;;;;;;;1.15;0.50;;;25.60;65.10;;;;;;5109762;28;20067;-65
2020/12/22 07:58:17;;;;;;;0.75;0.45;;;25.50;62.00;;;;;;5116105;28;20504;-66
2020/12/22 08:00:45;;;;;;;3.92;0.63;;;25.50;64.40;;;;;;5116185;28;20024;-64
2020/12/22 08:03:13;;;;;;;1.75;0.60;;;25.50;66.10;;;;;;5115959;28;20030;-64
2020/12/22 08:05:56;;;;;;;2.00;0.60;;;25.40;63.40;;;;;;5115728;28;20076;-63
2020/12/22 08:08:23;;;;;;;0.85;0.45;;;25.40;67.20;;;;;;5097768;28;20484;-65
2020/12/22 08:10:50;;;;;;;1.55;0.73;;;25.30;66.20;;;;;;5097414;28;20020;-63
2020/12/22 08:13:23;;;;;;;2.45;0.63;;;25.30;63.60;;;;;;5115844;28;20099;-62
2020/12/22 08:15:50;;;;;;;1.45;0.60;;;25.30;67.20;;;;;;5115364;28;20058;-64
2020/12/22 08:18:18;;;;;;;2.30;0.60;;;25.20;64.30;;;;;;5115554;28;20054;-63
2020/12/22 08:20:46;;;;;;;1.15;0.60;;;25.20;63.70;;;;;;5096065;28;20032;-63
2020/12/22 08:23:17;;;;;;;1.20;0.60;;;25.20;65.40;;;;;;5104911;27;20096;-54
2020/12/22 08:25:49;;;;;;;1.35;0.70;;;25.20;67.60;;;;;;5111750;27;20096;-54
2020/12/22 08:28:27;;;;;;;1.92;1.00;;;25.20;65.10;;;;;;5110611;28;20039;-60
2020/12/22 08:30:55;;;;;;;2.22;1.00;;;25.20;65.10;;;;;;5114423;27;20037;-59
2020/12/22 08:33:23;;;;;;;3.58;1.10;;;25.20;65.00;;;;;;5108597;28;20035;-64
2020/12/22 08:35:51;;;;;;;6.25;1.92;;;25.20;65.00;;;;;;5110822;28;20107;-60
2020/12/22 08:38:27;;;;;;;7.55;2.08;;;25.20;64.50;;;;;;5109481;28;20035;-56
2020/12/22 08:40:56;;;;;;;3.88;1.52;;;25.20;67.00;;;;;;5114362;27;20036;-59
2020/12/22 08:43:25;;;;;;;4.55;1.35;;;25.20;66.20;;;;;;5109611;27;20041;-54
2020/12/22 08:45:53;;;;;;;4.85;1.50;;;25.20;66.10;;;;;;5114689;27;20105;-62
2020/12/22 08:48:20;;;;;;;5.07;1.80;;;25.20;62.40;;;;;;5113927;28;20031;-64
2020/12/22 08:50:52;;;;;;;9.57;2.15;;;25.10;65.80;;;;;;5112988;28;20023;-63
2020/12/22 08:53:19;;;;;;;3.70;1.45;;;25.10;66.00;;;;;;5108065;28;20128;-62
2020/12/22 08:55:46;;;;;;;6.85;2.17;;;25.10;67.80;;;;;;5113065;28;20096;-61
2020/12/22 08:58:16;;;;;;;6.50;1.90;;;25.00;66.90;;;;;;5112639;28;20181;-61
2020/12/22 09:00:44;;;;;;;6.45;1.95;;;25.00;67.40;;;;;;5113133;28;20024;-68
2020/12/22 09:03:11;;;;;;;4.40;1.77;;;25.00;65.70;;;;;;5108607;28;20406;-65
2020/12/22 09:05:38;;;;;;;5.90;1.48;;;25.00;62.20;;;;;;5113328;28;20050;-67
2020/12/22 09:08:07;;;;;;;3.50;1.33;;;25.00;57.50;;;;;;5109740;28;20060;-66
2020/12/22 09:10:34;;;;;;;5.15;1.92;;;25.00;61.70;;;;;;5112039;28;20111;-66
2020/12/22 09:13:03;;;;;;;4.97;1.83;;;25.00;60.40;;;;;;5108042;28;20420;-65
2020/12/22 09:15:30;;;;;;;2.28;1.15;;;24.90;58.90;;;;;;5113090;28;20057;-67
2020/12/22 09:17:57;;;;;;;2.72;1.13;;;24.90;61.70;;;;;;5116843;27;20096;-68
2020/12/22 09:20:25;;;;;;;2.63;1.45;;;24.80;58.90;;;;;;5112424;28;20109;-67
2020/12/22 09:22:52;;;;;;;20.60;2.05;;;24.80;58.70;;;;;;5108304;28;20046;-68
2020/12/22 09:25:19;;;;;;;4.88;1.75;;;24.70;56.40;;;;;;5112176;28;20028;-65
2020/12/22 09:27:47;;;;;;;2.55;0.98;;;24.70;58.60;;;;;;5113516;28;20039;-68
2020/12/22 09:30:15;;;;;;;4.60;1.27;;;24.60;56.70;;;;;;5113052;28;20424;-68
2020/12/22 09:32:46;;;;;;;2.13;0.90;;;24.60;58.60;;;;;;5105011;28;20098;-65
2020/12/22 09:35:14;;;;;;;3.43;1.03;;;24.60;56.60;;;;;;5111355;28;20024;-66
2020/12/22 09:37:41;;;;;;;2.13;0.77;;;24.50;59.30;;;;;;5112870;28;20040;-67
2020/12/22 09:40:11;;;;;;;4.03;1.27;;;24.50;57.50;;;;;;5112807;28;20111;-68
2020/12/22 09:42:40;;;;;;;1.85;0.68;;;24.50;56.90;;;;;;5108745;28;20023;-70
2020/12/22 09:45:09;;;;;;;3.45;0.88;;;24.40;56.70;;;;;;5112258;28;20434;-68
2020/12/22 09:47:37;;;;;;;3.50;1.15;;;24.40;56.60;;;;;;5095177;28;20478;-66
2020/12/22 09:50:04;;;;;;;2.38;0.68;;;24.40;51.30;;;;;;5112249;28;20119;-71
2020/12/22 09:52:31;;;;;;;2.78;0.90;;;24.40;58.60;;;;;;5107737;28;20016;-61
2020/12/22 09:54:59;;;;;;;2.53;0.70;;;24.30;58.10;;;;;;5109199;28;20024;-59
2020/12/22 09:57:26;;;;;;;7.38;0.80;;;24.30;57.20;;;;;;5109261;28;20067;-59
2020/12/22 09:59:53;;;;;;;1.50;0.60;;;24.30;57.50;;;;;;5110680;28;20034;-59
2020/12/22 10:02:20;;;;;;;3.53;0.90;;;24.30;58.70;;;;;;5106063;28;20031;-56
2020/12/22 10:04:48;;;;;;;1.98;0.88;;;24.30;58.50;;;;;;5102057;28;20050;-62
2020/12/22 10:07:15;;;;;;;5.20;1.00;;;24.30;57.40;;;;;;5110680;28;20452;-65
2020/12/22 10:09:42;;;;;;;4.78;1.35;;;24.20;56.40;;;;;;5110919;28;20058;-61
2020/12/22 10:12:10;;;;;;;2.10;0.68;;;24.20;58.70;;;;;;5107720;28;21190;-61
2020/12/22 10:14:37;;;;;;;2.88;0.80;;;24.20;59.00;;;;;;5111101;28;20077;-61
2020/12/22 10:17:06;;;;;;;2.38;0.60;;;24.20;59.90;;;;;;5112070;28;20019;-63
2020/12/22 10:19:34;;;;;;;1.13;0.70;;;24.20;58.70;;;;;;5113016;27;20657;-60
2020/12/22 10:22:01;;;;;;;1.75;0.82;;;24.10;57.20;;;;;;5107545;28;20028;-61
2020/12/22 10:24:29;;;;;;;1.33;0.68;;;24.20;59.80;;;;;;5107367;28;20034;-63
2020/12/22 10:26:56;;;;;;;3.63;1.02;;;24.20;59.20;;;;;;5111754;28;20024;-63
2020/12/22 10:29:23;;;;;;;1.20;0.52;;;24.10;59.40;;;;;;5111351;28;20028;-62
2020/12/22 10:31:50;;;;;;;1.38;0.70;;;24.10;59.90;;;;;;5107602;28;20102;-63
2020/12/22 10:34:18;;;;;;;2.78;1.15;;;24.10;60.40;;;;;;5109848;28;20019;-62
2020/12/22 10:36:47;;;;;;;2.20;0.80;;;24.10;60.80;;;;;;5111609;28;20068;-62
2020/12/22 10:39:14;;;;;;;3.05;0.80;;;24.10;60.90;;;;;;5111439;28;20478;-60
2020/12/22 10:41:41;;;;;;;2.80;0.50;;;24.00;61.40;;;;;;5108038;28;20508;-54
2020/12/22 10:44:10;;;;;;;4.57;0.60;;;24.00;60.90;;;;;;5107364;28;20024;-61
2020/12/22 10:46:37;;;;;;;1.90;0.60;;;24.10;61.20;;;;;;5111508;28;20469;-58
2020/12/22 10:49:04;;;;;;;2.58;0.60;;;24.10;61.30;;;;;;5089247;28;20032;-56
2020/12/22 10:51:32;;;;;;;2.28;0.60;;;24.10;62.70;;;;;;5111819;28;20031;-60
2020/12/22 10:54:00;;;;;;;3.08;0.93;;;24.00;62.30;;;;;;5087029;28;20397;-61
2020/12/22 10:56:27;;;;;;;2.15;0.52;;;24.10;61.50;;;;;;5111532;28;20451;-61
2020/12/22 10:58:55;;;;;;;4.55;0.68;;;24.10;62.90;;;;;;5111443;28;20135;-60
2020/12/22 11:01:22;;;;;;;2.78;0.50;;;24.00;63.10;;;;;;5111450;28;20050;-60
2020/12/22 11:03:50;;;;;;;1.77;0.77;;;24.10;63.50;;;;;;5105994;28;20038;-61
2020/12/22 11:08:49;;;;;;;4.25;1.25;;;24.00;61.20;;;;;;5112093;28;20159;-61
2020/12/22 11:11:16;;;;;;;2.10;0.57;;;24.00;62.70;;;;;;5110976;28;20023;-60
2020/12/22 11:13:44;;;;;;;6.20;0.77;;;24.00;63.00;;;;;;5105391;28;20031;-61
2020/12/22 11:16:11;;;;;;;2.42;0.80;;;24.00;61.70;;;;;;5111669;28;20111;-61
2020/12/22 11:18:40;;;;;;;3.55;0.73;;;24.00;63.40;;;;;;5114292;28;20097;-60
2020/12/22 11:21:12;;;;;;;1.98;0.95;;;24.00;63.70;;;;;;5111382;28;20020;-59
2020/12/22 11:23:39;;;;;;;1.65;0.93;;;24.00;62.30;;;;;;5105190;28;20063;-57
2020/12/22 11:26:10;;;;;;;3.95;0.60;;;24.00;63.10;;;;;;5106634;28;20031;-62
2020/12/22 11:28:38;;;;;;;1.10;0.80;;;23.90;62.80;;;;;;5111341;28;20020;-60
2020/12/22 11:31:05;;;;;;;1.13;0.70;;;23.90;62.30;;;;;;5111427;28;20016;-52
2020/12/22 11:33:33;;;;;;;1.85;0.73;;;23.90;62.70;;;;;;5105686;28;20233;-61
2020/12/22 11:36:00;;;;;;;0.93;0.60;;;23.90;63.50;;;;;;5093406;28;20044;-65
2020/12/22 11:38:28;;;;;;;1.67;0.68;;;23.90;63.30;;;;;;5111172;28;20027;-63
2020/12/22 11:40:56;;;;;;;1.95;0.63;;;23.90;62.80;;;;;;5111048;28;20035;-57
2020/12/22 11:43:23;;;;;;;6.20;0.95;;;23.90;62.90;;;;;;5106140;28;20035;-59
2020/12/22 11:45:50;;;;;;;0.52;0.45;;;23.90;63.40;;;;;;5110012;28;20108;-61
2020/12/22 11:48:18;;;;;;;1.08;0.50;;;23.90;63.40;;;;;;5111385;28;20023;-61
2020/12/22 11:50:45;;;;;;;2.47;0.60;;;23.80;63.30;;;;;;5112564;28;20518;-64
2020/12/22 11:53:12;;;;;;;1.23;0.50;;;23.80;63.30;;;;;;5112401;28;20024;-64
2020/12/22 11:55:40;;;;;;;4.65;0.63;;;23.80;63.50;;;;;;5112194;28;20034;-63
2020/12/22 11:58:07;;;;;;;1.88;0.50;;;23.70;63.40;;;;;;5112541;28;20067;-65
2020/12/22 12:00:34;;;;;;;1.67;0.60;;;23.70;63.60;;;;;;5112476;28;20020;-63
2020/12/22 12:03:02;;;;;;;1.13;0.45;;;23.70;63.60;;;;;;5112412;28;20504;-65
2020/12/22 12:05:29;;;;;;;1.90;0.50;;;23.60;63.30;;;;;;5112291;28;20111;-64
2020/12/22 12:07:56;;;;;;;4.15;0.68;;;23.60;63.40;;;;;;5112446;28;20030;-65
2020/12/22 12:10:24;;;;;;;1.52;0.60;;;23.60;63.70;;;;;;5110829;28;20501;-65
2020/12/22 12:12:51;;;;;;;7.78;0.80;;;23.50;63.70;;;;;;5111615;28;20032;-63
2020/12/22 12:15:18;;;;;;;1.88;0.57;;;23.50;63.70;;;;;;5115446;28;20030;-64
2020/12/22 12:17:45;;;;;;;0.75;0.50;;;23.40;63.60;;;;;;5115662;28;20055;-63
2020/12/22 12:20:13;;;;;;;1.40;0.47;;;23.40;63.80;;;;;;5116016;28;20031;-64
2020/12/22 12:22:40;;;;;;;1.13;0.70;;;23.40;64.30;;;;;;5116094;28;20062;-62
2020/12/22 12:25:07;;;;;;;1.60;0.70;;;23.40;64.10;;;;;;5115973;28;20117;-62
2020/12/22 12:27:35;;;;;;;2.67;0.70;;;23.30;64.30;;;;;;5116087;28;20044;-64
2020/12/22 12:30:03;;;;;;;1.75;0.60;;;23.30;64.50;;;;;;5116179;28;20023;-64
2020/12/22 12:32:32;;;;;;;0.82;0.60;;;23.30;64.90;;;;;;5115799;28;20389;-64
2020/12/22 12:35:00;;;;;;;1.08;0.70;;;23.30;65.30;;;;;;5116014;28;20038;-65
2020/12/22 12:37:30;;;;;;;4.97;0.98;;;23.20;65.20;;;;;;5115530;28;20023;-62
2020/12/22 12:39:57;;;;;;;1.63;0.63;;;23.20;65.50;;;;;;5115759;28;20465;-62
2020/12/22 12:42:28;;;;;;;1.98;0.85;;;23.20;65.20;;;;;;5097665;28;20016;-64
2020/12/22 12:44:56;;;;;;;0.80;0.52;;;23.20;65.40;;;;;;5115868;28;20069;-62
2020/12/22 12:47:24;;;;;;;4.05;0.68;;;23.10;65.60;;;;;;5115538;28;20106;-62
2020/12/22 12:49:51;;;;;;;1.52;0.63;;;23.20;65.50;;;;;;5115650;28;20043;-63
2020/12/22 12:52:19;;;;;;;3.28;0.82;;;23.10;65.70;;;;;;5115383;28;20027;-64
2020/12/22 12:54:46;;;;;;;1.02;0.43;;;23.10;65.60;;;;;;5115535;28;20024;-63
2020/12/22 12:57:13;;;;;;;2.63;1.00;;;23.00;65.50;;;;;;5115539;28;20150;-62